createdAt,value
2018-06-24T00:00:02.819Z,15.80
2018-06-24T00:02:30.890Z,15.80
2018-06-24T00:04:58.954Z,15.80
2018-06-24T00:07:27.026Z,15.80
2018-06-24T00:09:55.110Z,15.70
2018-06-24T00:12:23.280Z,15.70
2018-06-24T00:14:51.398Z,15.70
2018-06-24T00:17:19.486Z,15.70
2018-06-24T00:19:47.579Z,15.70
2018-06-24T00:22:15.670Z,15.70
2018-06-24T00:24:43.755Z,15.70
2018-06-24T00:29:39.763Z,15.70
2018-06-24T00:32:07.829Z,15.60
2018-06-24T00:34:36.022Z,15.60
2018-06-24T00:37:04.114Z,15.60
2018-06-24T00:39:32.218Z,15.60
2018-06-24T00:42:00.287Z,15.50
2018-06-24T00:44:28.414Z,15.50
2018-06-24T00:46:56.496Z,15.50
2018-06-24T00:49:24.558Z,15.40
2018-06-24T00:51:52.647Z,15.20
2018-06-24T00:54:20.770Z,15.20
2018-06-24T00:56:48.819Z,15.20
2018-06-24T00:59:28.504Z,15.10
2018-06-24T01:01:56.575Z,15.10
2018-06-24T01:04:24.663Z,15.00
2018-06-24T01:09:20.598Z,15.00
2018-06-24T01:11:48.678Z,15.00
2018-06-24T01:14:16.743Z,15.00
2018-06-24T01:16:44.823Z,14.90
2018-06-24T01:19:12.914Z,15.00
2018-06-24T01:21:40.982Z,14.90
2018-06-24T01:24:09.058Z,14.90
2018-06-24T01:26:37.130Z,14.90
2018-06-24T01:29:05.215Z,14.90
2018-06-24T01:31:33.299Z,14.80
2018-06-24T01:34:01.379Z,14.80
2018-06-24T01:36:29.434Z,14.80
2018-06-24T01:38:57.511Z,14.80
2018-06-24T01:41:25.574Z,14.70
2018-06-24T01:43:53.656Z,14.60
2018-06-24T01:46:21.747Z,14.60
2018-06-24T01:48:49.891Z,14.60
2018-06-24T01:51:17.970Z,14.50
2018-06-24T01:53:46.048Z,14.50
2018-06-24T01:56:14.130Z,14.50
2018-06-24T01:58:42.224Z,14.50
2018-06-24T02:01:10.309Z,14.50
2018-06-24T02:03:38.390Z,14.50
2018-06-24T02:06:06.744Z,14.40
2018-06-24T02:08:34.970Z,14.40
2018-06-24T02:11:03.051Z,14.40
2018-06-24T02:13:31.126Z,14.40
2018-06-24T02:15:59.200Z,14.30
2018-06-24T02:18:27.271Z,14.30
2018-06-24T02:20:55.380Z,14.30
2018-06-24T02:23:23.510Z,14.20
2018-06-24T02:25:51.566Z,14.10
2018-06-24T02:30:47.582Z,14.00
2018-06-24T02:33:15.709Z,14.00
2018-06-24T02:35:43.782Z,13.90
2018-06-24T02:38:11.864Z,13.90
2018-06-24T02:40:39.949Z,13.80
2018-06-24T02:43:08.094Z,13.70
2018-06-24T02:45:36.218Z,13.60
2018-06-24T02:48:04.255Z,13.60
2018-06-24T02:50:32.347Z,13.60
2018-06-24T02:53:00.434Z,13.60
2018-06-24T02:55:28.504Z,13.50
2018-06-24T02:57:56.579Z,13.50
2018-06-24T03:00:24.658Z,13.50
2018-06-24T03:02:52.754Z,13.50
2018-06-24T03:05:20.854Z,13.50
2018-06-24T03:07:48.934Z,13.40
2018-06-24T03:10:17.027Z,13.40
2018-06-24T03:12:45.103Z,13.40
2018-06-24T03:15:13.179Z,13.40
2018-06-24T03:17:41.255Z,13.40
2018-06-24T03:20:09.363Z,13.40
2018-06-24T03:25:05.302Z,13.40
2018-06-24T03:27:33.374Z,13.50
2018-06-24T03:30:01.435Z,13.50
2018-06-24T03:32:29.507Z,13.50
2018-06-24T03:34:57.654Z,13.50
2018-06-24T03:37:25.754Z,13.50
2018-06-24T03:39:53.826Z,13.60
2018-06-24T03:44:49.841Z,13.60
2018-06-24T03:47:17.945Z,13.70
2018-06-24T03:49:46.034Z,13.70
2018-06-24T03:52:14.110Z,13.60
2018-06-24T03:54:42.182Z,13.70
2018-06-24T03:57:10.292Z,13.70
2018-06-24T03:59:38.396Z,13.70
2018-06-24T04:02:06.478Z,13.70
2018-06-24T04:04:34.550Z,13.70
2018-06-24T04:07:02.654Z,13.80
2018-06-24T04:09:30.710Z,13.80
2018-06-24T04:11:58.806Z,13.90
2018-06-24T04:14:26.870Z,13.90
2018-06-24T04:16:54.973Z,13.90
2018-06-24T04:19:23.046Z,13.80
2018-06-24T04:21:51.140Z,13.80
2018-06-24T04:26:47.162Z,13.80
2018-06-24T04:29:15.234Z,13.90
2018-06-24T04:34:11.268Z,13.90
2018-06-24T04:36:39.331Z,13.90
2018-06-24T04:39:08.637Z,13.90
2018-06-24T04:41:36.718Z,14.00
2018-06-24T04:44:04.816Z,14.00
2018-06-24T04:46:32.898Z,14.00
2018-06-24T04:49:00.983Z,14.00
2018-06-24T04:51:29.401Z,14.10
2018-06-24T04:53:57.882Z,14.10
2018-06-24T04:56:26.160Z,14.10
2018-06-24T04:58:54.445Z,14.10
2018-06-24T05:01:22.526Z,14.10
2018-06-24T05:03:50.602Z,14.10
2018-06-24T05:06:18.678Z,14.10
2018-06-24T05:08:46.770Z,14.10
2018-06-24T05:11:14.836Z,14.20
2018-06-24T05:13:42.903Z,14.20
2018-06-24T05:16:10.970Z,14.20
2018-06-24T05:18:39.043Z,14.20
2018-06-24T05:21:07.110Z,14.20
2018-06-24T05:23:35.190Z,14.30
2018-06-24T05:26:03.471Z,14.30
2018-06-24T05:28:31.570Z,14.30
2018-06-24T05:30:59.814Z,14.40
2018-06-24T05:33:27.878Z,14.40
2018-06-24T05:35:55.954Z,14.50
2018-06-24T05:38:24.034Z,14.60
2018-06-24T05:40:52.150Z,14.70
2018-06-24T05:43:20.267Z,14.80
2018-06-24T05:45:48.343Z,14.90
2018-06-24T05:48:16.431Z,14.90
2018-06-24T05:50:44.566Z,14.90
2018-06-24T05:53:12.658Z,14.90
2018-06-24T05:55:40.729Z,15.00
2018-06-24T05:58:08.885Z,15.10
2018-06-24T06:00:36.935Z,15.10
2018-06-24T06:03:05.055Z,15.10
2018-06-24T06:05:33.128Z,15.20
2018-06-24T06:08:01.218Z,15.30
2018-06-24T06:10:29.351Z,15.30
2018-06-24T06:12:57.370Z,15.40
2018-06-24T06:15:25.443Z,15.50
2018-06-24T06:17:53.512Z,15.50
2018-06-24T06:20:21.586Z,15.60
2018-06-24T06:22:49.701Z,15.70
2018-06-24T06:25:17.795Z,15.80
2018-06-24T06:27:45.879Z,15.80
2018-06-24T06:30:14.018Z,15.80
2018-06-24T06:32:42.078Z,15.80
2018-06-24T06:35:10.165Z,15.90
2018-06-24T06:37:38.258Z,16.00
2018-06-24T06:40:06.343Z,16.10
2018-06-24T06:42:34.426Z,16.20
2018-06-24T06:45:02.699Z,16.30
2018-06-24T06:47:30.637Z,16.30
2018-06-24T06:49:58.715Z,16.30
2018-06-24T06:52:26.792Z,16.40
2018-06-24T06:54:54.858Z,16.40
2018-06-24T06:57:22.931Z,16.50
2018-06-24T06:59:51.090Z,16.50
2018-06-24T07:02:19.171Z,16.50
2018-06-24T07:04:47.263Z,16.50
2018-06-24T07:07:15.402Z,16.60
2018-06-24T07:09:43.458Z,16.70
2018-06-24T07:12:11.546Z,16.70
2018-06-24T07:14:39.646Z,16.70
2018-06-24T07:17:07.840Z,16.80
2018-06-24T07:19:35.906Z,16.80
2018-06-24T07:22:04.059Z,16.80
2018-06-24T07:24:32.115Z,16.90
2018-06-24T07:27:00.216Z,16.90
2018-06-24T07:29:28.291Z,17.00
2018-06-24T07:31:56.382Z,17.00
2018-06-24T07:34:24.507Z,17.00
2018-06-24T07:36:52.598Z,17.00
2018-06-24T07:39:20.799Z,17.00
2018-06-24T07:41:48.720Z,17.00
2018-06-24T07:44:16.803Z,17.10
2018-06-24T07:46:44.898Z,17.10
2018-06-24T07:49:12.966Z,17.10
2018-06-24T07:51:41.061Z,17.10
2018-06-24T07:54:09.142Z,17.00
2018-06-24T07:56:37.211Z,17.10
2018-06-24T07:59:05.353Z,17.20
2018-06-24T08:01:33.558Z,17.10
2018-06-24T08:04:01.651Z,17.20
2018-06-24T08:06:29.744Z,17.10
2018-06-24T08:08:57.834Z,17.10
2018-06-24T08:11:26.087Z,17.10
2018-06-24T08:13:54.239Z,17.10
2018-06-24T08:16:22.340Z,17.10
2018-06-24T08:18:50.414Z,17.20
2018-06-24T08:21:18.464Z,17.30
2018-06-24T08:23:46.537Z,17.30
2018-06-24T08:26:14.682Z,17.40
2018-06-24T08:28:42.810Z,17.50
2018-06-24T08:31:10.996Z,17.60
2018-06-24T08:33:39.066Z,17.70
2018-06-24T08:36:07.144Z,17.70
2018-06-24T08:38:35.207Z,17.80
2018-06-24T08:41:03.290Z,18.00
2018-06-24T08:43:31.370Z,18.10
2018-06-24T08:45:59.489Z,18.30
2018-06-24T08:48:27.584Z,18.40
2018-06-24T08:50:55.644Z,18.40
2018-06-24T08:53:23.742Z,18.50
2018-06-24T08:55:51.799Z,18.50
2018-06-24T08:58:19.857Z,18.50
2018-06-24T09:00:47.953Z,18.50
2018-06-24T09:03:16.037Z,18.60
2018-06-24T09:05:44.120Z,18.60
2018-06-24T09:08:12.190Z,18.70
2018-06-24T09:10:40.263Z,18.70
2018-06-24T09:13:08.342Z,18.80
2018-06-24T09:15:36.458Z,18.70
2018-06-24T09:18:04.481Z,18.80
2018-06-24T09:20:32.540Z,18.80
2018-06-24T09:23:00.628Z,18.80
2018-06-24T09:25:28.716Z,18.60
2018-06-24T09:30:24.740Z,18.40
2018-06-24T09:32:52.814Z,18.50
2018-06-24T09:35:20.882Z,18.60
2018-06-24T09:37:48.958Z,18.70
2018-06-24T09:40:17.078Z,18.80
2018-06-24T09:42:45.171Z,18.90
2018-06-24T09:45:13.278Z,19.10
2018-06-24T09:47:41.729Z,19.10
2018-06-24T09:50:09.903Z,19.20
2018-06-24T09:52:38.051Z,19.30
2018-06-24T09:55:06.173Z,19.40
2018-06-24T09:57:34.327Z,19.40
2018-06-24T10:00:02.439Z,19.50
2018-06-24T10:02:30.541Z,19.40
2018-06-24T10:04:58.925Z,19.30
2018-06-24T10:07:27.022Z,19.30
2018-06-24T10:09:55.102Z,19.20
2018-06-24T10:12:23.303Z,19.30
2018-06-24T10:14:51.463Z,19.50
2018-06-24T10:17:19.558Z,19.60
2018-06-24T10:19:47.634Z,19.70
2018-06-24T10:27:11.462Z,20.10
2018-06-24T10:29:39.542Z,20.20
2018-06-24T10:32:07.654Z,20.20
2018-06-24T10:34:35.783Z,20.30
2018-06-24T10:37:03.918Z,20.30
2018-06-24T10:41:59.943Z,20.10
2018-06-24T10:44:28.019Z,20.00
2018-06-24T10:46:56.089Z,20.00
2018-06-24T10:49:24.243Z,20.00
2018-06-24T10:51:52.317Z,20.20
2018-06-24T10:54:20.438Z,20.40
2018-06-24T10:56:48.569Z,20.50
2018-06-24T10:59:16.638Z,20.70
2018-06-24T11:01:44.699Z,20.70
2018-06-24T11:04:12.822Z,20.70
2018-06-24T11:09:09.980Z,20.70
2018-06-24T11:11:38.116Z,20.80
2018-06-24T11:14:06.490Z,21.00
2018-06-24T11:16:34.930Z,21.00
2018-06-24T11:19:02.963Z,21.00
2018-06-24T11:21:31.345Z,20.90
2018-06-24T11:24:00.204Z,21.00
2018-06-24T11:26:28.498Z,20.90
2018-06-24T11:28:56.594Z,20.80
2018-06-24T11:31:24.737Z,20.80
2018-06-24T11:33:52.890Z,20.90
2018-06-24T11:36:20.998Z,21.10
2018-06-24T11:38:49.143Z,21.20
2018-06-24T11:41:17.251Z,21.00
2018-06-24T11:46:13.569Z,21.00
2018-06-24T11:48:41.650Z,20.90
2018-06-24T11:51:10.334Z,20.80
2018-06-24T11:53:38.427Z,20.80
2018-06-24T11:56:06.515Z,20.80
2018-06-24T11:58:34.623Z,20.90
2018-06-24T12:01:03.043Z,20.80
2018-06-24T12:03:31.132Z,20.80
2018-06-24T12:05:59.246Z,20.80
2018-06-24T12:08:27.829Z,20.80
2018-06-24T12:10:56.028Z,21.00
2018-06-24T12:13:24.071Z,21.20
2018-06-24T12:15:52.147Z,21.30
2018-06-24T12:18:20.323Z,21.20
2018-06-24T12:20:48.288Z,21.00
2018-06-24T12:23:16.367Z,20.80
2018-06-24T12:25:44.509Z,20.70
2018-06-24T12:28:12.570Z,20.70
2018-06-24T12:33:08.653Z,20.90
2018-06-24T12:35:36.771Z,20.90
2018-06-24T12:38:05.633Z,21.00
2018-06-24T12:40:35.304Z,21.00
2018-06-24T12:43:04.399Z,21.00
2018-06-24T12:45:33.425Z,20.90
2018-06-24T12:48:01.739Z,20.70
2018-06-24T12:52:58.859Z,20.50
2018-06-24T12:55:27.070Z,20.60
2018-06-24T12:57:55.583Z,20.70
2018-06-24T13:00:24.595Z,20.90
2018-06-24T13:02:52.011Z,21.00
2018-06-24T13:05:20.398Z,21.10
2018-06-24T13:07:48.614Z,21.00
2018-06-24T13:10:16.697Z,20.90
2018-06-24T13:12:44.904Z,20.90
2018-06-24T13:15:12.950Z,20.80
2018-06-24T13:17:41.035Z,20.80
2018-06-24T13:20:09.118Z,20.70
2018-06-24T13:22:37.206Z,20.70
2018-06-24T13:25:05.282Z,20.80
2018-06-24T13:27:33.378Z,20.80
2018-06-24T13:30:01.466Z,20.70
2018-06-24T13:34:57.688Z,20.80
2018-06-24T13:37:25.786Z,20.70
2018-06-24T13:42:22.061Z,20.80
2018-06-24T13:44:50.378Z,20.70
2018-06-24T13:49:47.374Z,21.00
2018-06-24T13:54:43.705Z,21.50
2018-06-24T13:57:12.019Z,21.70
2018-06-24T13:59:40.208Z,21.80
2018-06-24T14:02:08.298Z,21.90
2018-06-24T14:04:36.516Z,21.90
2018-06-24T14:07:04.730Z,21.70
2018-06-24T14:09:32.802Z,21.70
2018-06-24T14:12:01.376Z,21.60
2018-06-24T14:14:29.469Z,21.40
2018-06-24T14:16:57.678Z,21.30
2018-06-24T14:19:26.595Z,21.20
2018-06-24T14:21:54.776Z,21.10
2018-06-24T14:24:23.217Z,21.00
2018-06-24T14:26:51.371Z,20.90
2018-06-24T14:29:20.083Z,20.70
2018-06-24T14:31:48.795Z,20.70
2018-06-24T14:34:17.490Z,20.70
2018-06-24T14:36:45.757Z,20.70
2018-06-24T14:39:13.827Z,20.70
2018-06-24T14:41:42.083Z,20.60
2018-06-24T14:44:10.459Z,20.40
2018-06-24T14:46:38.594Z,20.20
2018-06-24T14:49:07.245Z,20.10
2018-06-24T14:51:35.622Z,20.10
2018-06-24T14:54:04.299Z,20.00
2018-06-24T14:59:01.184Z,19.90
2018-06-24T15:01:29.706Z,19.90
2018-06-24T15:08:54.326Z,19.80
2018-06-24T15:11:22.592Z,19.80
2018-06-24T15:13:50.645Z,19.80
2018-06-24T15:16:18.851Z,19.80
2018-06-24T15:18:46.975Z,19.90
2018-06-24T15:21:15.083Z,19.80
2018-06-24T15:23:43.175Z,19.80
2018-06-24T15:26:11.291Z,19.90
2018-06-24T15:28:39.439Z,19.80
2018-06-24T15:31:07.623Z,19.80
2018-06-24T15:33:35.801Z,19.80
2018-06-24T15:36:03.991Z,19.80
2018-06-24T15:38:32.171Z,19.80
2018-06-24T15:41:00.239Z,19.80
2018-06-24T15:43:28.932Z,19.80
2018-06-24T15:45:57.197Z,19.80
2018-06-24T15:48:25.561Z,19.80
2018-06-24T15:50:53.658Z,19.70
2018-06-24T15:53:21.747Z,19.80
2018-06-24T15:55:49.794Z,19.80
2018-06-24T15:58:17.940Z,19.80
2018-06-24T16:00:46.234Z,19.70
2018-06-24T16:03:14.335Z,19.70
2018-06-24T16:05:42.489Z,19.50
2018-06-24T16:08:10.719Z,19.40
2018-06-24T16:10:39.024Z,19.20
2018-06-24T16:13:07.307Z,19.10
2018-06-24T16:15:36.932Z,19.10
2018-06-24T16:18:05.039Z,19.00
2018-06-24T16:20:33.155Z,19.00
2018-06-24T16:23:01.258Z,18.90
2018-06-24T16:25:29.354Z,18.80
2018-06-24T16:27:58.407Z,18.70
2018-06-24T16:30:27.171Z,18.60
2018-06-24T16:32:55.215Z,18.60
2018-06-24T16:35:23.282Z,18.50
2018-06-24T16:37:51.397Z,18.40
2018-06-24T16:40:19.459Z,18.30
2018-06-24T16:45:15.535Z,18.30
2018-06-24T16:47:43.646Z,18.30
2018-06-24T16:50:11.738Z,18.30
2018-06-24T16:52:39.836Z,18.30
2018-06-24T16:55:07.935Z,18.30
2018-06-24T16:57:36.044Z,18.30
2018-06-24T17:00:04.609Z,18.20
2018-06-24T17:02:32.670Z,18.30
2018-06-24T17:05:00.777Z,18.30
2018-06-24T17:07:28.883Z,18.30
2018-06-24T17:09:57.038Z,18.30
2018-06-24T17:12:25.157Z,18.30
2018-06-24T17:14:53.268Z,18.20
2018-06-24T17:17:21.385Z,18.20
2018-06-24T17:19:49.522Z,18.10
2018-06-24T17:22:17.673Z,18.00
2018-06-24T17:24:45.771Z,18.00
2018-06-24T17:27:13.880Z,17.90
2018-06-24T17:29:42.043Z,17.90
2018-06-24T17:32:10.134Z,17.80
2018-06-24T17:34:38.232Z,17.80
2018-06-24T17:37:06.332Z,17.80
2018-06-24T17:39:34.428Z,17.70
2018-06-24T17:42:02.555Z,17.70
2018-06-24T17:44:30.726Z,17.70
2018-06-24T17:46:58.802Z,17.70
2018-06-24T17:49:27.003Z,17.70
2018-06-24T17:51:55.086Z,17.70
2018-06-24T17:54:23.226Z,17.60
2018-06-24T17:56:51.286Z,17.50
2018-06-24T17:59:19.350Z,17.40
2018-06-24T18:01:47.494Z,17.50
2018-06-24T18:04:15.579Z,17.50
2018-06-24T18:06:43.710Z,17.50
2018-06-24T18:09:12.388Z,17.50
2018-06-24T18:11:40.763Z,17.40
2018-06-24T18:14:09.220Z,17.40
2018-06-24T18:16:37.307Z,17.40
2018-06-24T18:19:05.612Z,17.30
2018-06-24T18:21:33.712Z,17.20
2018-06-24T18:24:02.611Z,17.00
2018-06-24T18:26:30.700Z,16.90
2018-06-24T18:28:58.770Z,16.90
2018-06-24T18:31:26.877Z,16.90
2018-06-24T18:33:54.975Z,16.80
2018-06-24T18:36:23.059Z,16.80
2018-06-24T18:38:51.134Z,16.70
2018-06-24T18:41:19.248Z,16.70
2018-06-24T18:43:47.354Z,16.70
2018-06-24T18:46:15.552Z,16.70
2018-06-24T18:48:43.664Z,16.70
2018-06-24T18:51:11.718Z,16.70
2018-06-24T18:53:39.782Z,16.70
2018-06-24T18:56:07.867Z,16.70
2018-06-24T18:58:35.939Z,16.70
2018-06-24T19:01:04.148Z,16.60
2018-06-24T19:03:32.220Z,16.60
2018-06-24T19:06:00.343Z,16.50
2018-06-24T19:08:28.471Z,16.60
2018-06-24T19:13:24.487Z,16.60
2018-06-24T19:15:52.557Z,16.50
2018-06-24T19:18:20.635Z,16.40
2018-06-24T19:20:48.715Z,16.50
2018-06-24T19:23:16.775Z,16.50
2018-06-24T19:25:44.916Z,16.40
2018-06-24T19:28:13.514Z,16.40
2018-06-24T19:30:43.025Z,16.40
2018-06-24T19:33:11.201Z,16.40
2018-06-24T19:35:39.281Z,16.40
2018-06-24T19:38:07.371Z,16.30
2018-06-24T19:40:35.521Z,16.40
2018-06-24T19:43:03.702Z,16.30
2018-06-24T19:45:31.809Z,16.40
2018-06-24T19:48:00.698Z,16.40
2018-06-24T19:50:28.837Z,16.30
2018-06-24T19:52:56.919Z,16.30
2018-06-24T19:55:25.018Z,16.30
2018-06-24T19:57:53.129Z,16.30
2018-06-24T20:00:21.216Z,16.30
2018-06-24T20:02:49.282Z,16.30
2018-06-24T20:05:17.370Z,16.20
2018-06-24T20:07:45.466Z,16.30
2018-06-24T20:10:13.571Z,16.30
2018-06-24T20:12:41.679Z,16.20
2018-06-24T20:15:09.736Z,16.20
2018-06-24T20:17:37.875Z,16.20
2018-06-24T20:20:07.018Z,16.20
2018-06-24T20:22:35.098Z,16.10
2018-06-24T20:25:03.179Z,16.10
2018-06-24T20:27:31.232Z,16.00
2018-06-24T20:29:59.343Z,16.00
2018-06-24T20:32:27.444Z,16.00
2018-06-24T20:34:55.531Z,16.10
2018-06-24T20:37:23.630Z,16.10
2018-06-24T20:39:51.743Z,16.00
2018-06-24T20:42:19.794Z,16.00
2018-06-24T20:44:47.888Z,16.00
2018-06-24T20:47:15.969Z,16.00
2018-06-24T20:49:45.164Z,16.00
2018-06-24T20:52:13.280Z,16.00
2018-06-24T20:54:41.382Z,16.00
2018-06-24T20:57:09.482Z,16.00
2018-06-24T20:59:37.574Z,15.90
2018-06-24T21:02:05.667Z,15.90
2018-06-24T21:04:33.743Z,15.90
2018-06-24T21:07:01.875Z,15.90
2018-06-24T21:09:29.957Z,16.00
2018-06-24T21:11:58.835Z,16.00
2018-06-24T21:14:26.939Z,16.00
2018-06-24T21:16:55.003Z,16.00
2018-06-24T21:19:23.094Z,16.00
2018-06-24T21:21:53.187Z,16.00
2018-06-24T21:24:26.815Z,15.90
2018-06-24T21:26:54.919Z,15.90
2018-06-24T21:29:23.105Z,15.90
2018-06-24T21:31:51.197Z,15.80
2018-06-24T21:34:19.343Z,15.80
2018-06-24T21:36:47.551Z,15.80
2018-06-24T21:39:16.663Z,15.80
2018-06-24T21:41:44.875Z,15.80
2018-06-24T21:44:12.990Z,15.80
2018-06-24T21:46:41.067Z,15.90
2018-06-24T21:49:09.165Z,15.90
2018-06-24T21:51:37.311Z,15.90
2018-06-24T21:54:05.470Z,15.90
2018-06-24T21:56:33.553Z,15.90
2018-06-24T22:01:29.498Z,15.90
2018-06-24T22:03:57.726Z,15.80
2018-06-24T22:06:25.806Z,15.80
2018-06-24T22:08:53.872Z,15.80
2018-06-24T22:11:22.231Z,15.80
2018-06-24T22:13:50.343Z,15.80
2018-06-24T22:16:18.465Z,15.70
2018-06-24T22:18:46.650Z,15.70
2018-06-24T22:21:14.716Z,15.70
2018-06-24T22:23:42.802Z,15.70
2018-06-24T22:26:10.903Z,15.70
2018-06-24T22:31:06.878Z,15.70
2018-06-24T22:33:34.991Z,15.70
2018-06-24T22:36:03.061Z,15.60
2018-06-24T22:38:31.142Z,15.70
2018-06-24T22:40:59.249Z,15.60
2018-06-24T22:43:27.370Z,15.60
2018-06-24T22:45:55.458Z,15.60
2018-06-24T22:48:23.567Z,15.70
2018-06-24T22:50:51.883Z,15.60
2018-06-24T22:53:20.182Z,15.60
2018-06-24T22:55:48.250Z,15.60
2018-06-24T22:58:16.332Z,15.60
2018-06-24T23:00:44.442Z,15.60
2018-06-24T23:03:12.517Z,15.60
2018-06-24T23:05:40.598Z,15.60
2018-06-24T23:08:08.671Z,15.50
2018-06-24T23:10:36.763Z,15.50
2018-06-24T23:13:05.107Z,15.50
2018-06-24T23:15:33.181Z,15.50
2018-06-24T23:18:01.273Z,15.50
2018-06-24T23:20:29.375Z,15.50
2018-06-24T23:22:57.444Z,15.40
2018-06-24T23:25:25.602Z,15.50
2018-06-24T23:27:53.764Z,15.40
2018-06-24T23:30:21.823Z,15.40
2018-06-24T23:32:49.899Z,15.40
2018-06-24T23:35:18.006Z,15.40
2018-06-24T23:37:46.113Z,15.30
2018-06-24T23:40:14.234Z,15.40
2018-06-24T23:42:42.307Z,15.30
2018-06-24T23:45:10.390Z,15.40
2018-06-24T23:47:38.462Z,15.30
2018-06-24T23:50:06.550Z,15.30
2018-06-24T23:52:34.614Z,15.30
2018-06-24T23:55:02.699Z,15.30
2018-06-24T23:57:30.778Z,15.30
2018-06-24T23:59:58.853Z,15.20
